createdAt,value
2017-10-26T00:00:07.867Z,2.43
2017-10-26T00:02:35.515Z,1.90
2017-10-26T00:05:03.230Z,3.90
2017-10-26T00:07:30.873Z,2.47
2017-10-26T00:09:58.605Z,2.80
2017-10-26T00:12:26.250Z,2.50
2017-10-26T00:14:53.902Z,2.43
2017-10-26T00:17:21.623Z,2.80
2017-10-26T00:19:49.342Z,3.00
2017-10-26T00:22:17.080Z,2.70
2017-10-26T00:24:44.781Z,2.40
2017-10-26T00:27:12.476Z,3.00
2017-10-26T00:29:40.157Z,2.73
2017-10-26T00:32:07.828Z,2.10
2017-10-26T00:34:35.526Z,2.83
2017-10-26T00:37:03.242Z,2.70
2017-10-26T00:39:31.439Z,3.20
2017-10-26T00:41:59.126Z,2.87
2017-10-26T00:44:26.798Z,3.40
2017-10-26T00:46:54.509Z,3.40
2017-10-26T00:49:22.156Z,3.50
2017-10-26T00:51:49.856Z,3.27
2017-10-26T00:54:17.490Z,3.17
2017-10-26T00:56:45.114Z,3.47
2017-10-26T00:59:12.949Z,3.50
2017-10-26T01:01:40.664Z,3.97
2017-10-26T01:04:08.371Z,4.47
2017-10-26T01:06:35.946Z,3.50
2017-10-26T01:09:03.682Z,3.57
2017-10-26T01:11:31.322Z,3.70
2017-10-26T01:13:59.033Z,3.57
2017-10-26T01:16:26.674Z,3.90
2017-10-26T01:18:54.357Z,4.40
2017-10-26T01:21:22.013Z,4.13
2017-10-26T01:23:49.705Z,3.70
2017-10-26T01:26:17.368Z,4.47
2017-10-26T01:28:45.035Z,4.47
2017-10-26T01:31:12.703Z,4.43
2017-10-26T01:33:40.397Z,4.13
2017-10-26T01:36:08.048Z,4.40
2017-10-26T01:38:35.779Z,4.90
2017-10-26T01:41:03.471Z,5.03
2017-10-26T01:43:31.148Z,4.37
2017-10-26T01:45:58.802Z,4.20
2017-10-26T01:48:26.505Z,4.63
2017-10-26T01:50:54.176Z,4.30
2017-10-26T01:53:21.870Z,5.07
2017-10-26T01:55:49.554Z,4.87
2017-10-26T01:58:17.307Z,4.77
2017-10-26T02:00:44.955Z,4.40
2017-10-26T02:03:12.655Z,4.57
2017-10-26T02:05:40.340Z,4.97
2017-10-26T02:08:08.087Z,4.43
2017-10-26T02:10:35.745Z,4.10
2017-10-26T02:13:03.434Z,4.70
2017-10-26T02:15:31.120Z,4.63
2017-10-26T02:17:58.788Z,4.40
2017-10-26T02:20:26.474Z,5.30
2017-10-26T02:22:54.188Z,5.07
2017-10-26T02:25:21.886Z,4.37
2017-10-26T02:27:49.569Z,4.33
2017-10-26T02:30:29.012Z,4.67
2017-10-26T02:32:56.654Z,4.80
2017-10-26T02:35:24.354Z,4.73
2017-10-26T02:37:52.008Z,4.20
2017-10-26T02:40:19.724Z,4.87
2017-10-26T02:42:47.377Z,4.33
2017-10-26T02:45:15.082Z,4.43
2017-10-26T02:47:42.737Z,4.50
2017-10-26T02:50:10.439Z,5.07
2017-10-26T02:52:38.103Z,5.07
2017-10-26T02:55:05.822Z,5.77
2017-10-26T02:57:33.473Z,5.43
2017-10-26T03:00:01.159Z,5.47
2017-10-26T03:02:28.822Z,5.70
2017-10-26T03:04:56.518Z,6.20
2017-10-26T03:07:24.163Z,6.40
2017-10-26T03:09:51.880Z,5.60
2017-10-26T03:12:19.551Z,6.33
2017-10-26T03:14:47.195Z,6.00
2017-10-26T03:17:14.878Z,7.07
2017-10-26T03:19:42.536Z,6.53
2017-10-26T03:22:10.207Z,6.80
2017-10-26T03:24:37.859Z,7.80
2017-10-26T03:27:05.549Z,7.13
2017-10-26T03:29:33.203Z,7.30
2017-10-26T03:32:00.887Z,7.87
2017-10-26T03:34:28.514Z,7.97
2017-10-26T03:36:56.221Z,8.80
2017-10-26T03:39:23.912Z,8.53
2017-10-26T03:41:51.614Z,8.70
2017-10-26T03:44:19.266Z,8.30
2017-10-26T03:46:46.970Z,9.30
2017-10-26T03:49:14.616Z,8.77
2017-10-26T03:51:42.292Z,9.43
2017-10-26T03:54:09.953Z,8.83
2017-10-26T03:56:37.629Z,10.50
2017-10-26T03:59:05.340Z,10.20
2017-10-26T04:01:33.020Z,9.73
2017-10-26T04:04:00.734Z,10.43
2017-10-26T04:06:28.426Z,10.90
2017-10-26T04:08:56.149Z,11.40
2017-10-26T04:11:23.956Z,10.63
2017-10-26T04:13:51.698Z,11.00
2017-10-26T04:16:19.360Z,10.80
2017-10-26T04:18:47.065Z,11.57
2017-10-26T04:21:14.780Z,11.07
2017-10-26T04:23:42.502Z,10.90
2017-10-26T04:26:10.178Z,11.33
2017-10-26T04:28:37.913Z,11.50
2017-10-26T04:31:05.594Z,12.00
2017-10-26T04:33:33.353Z,12.13
2017-10-26T04:36:01.042Z,13.13
2017-10-26T04:38:28.790Z,11.93
2017-10-26T04:40:56.512Z,13.37
2017-10-26T04:43:24.241Z,12.23
2017-10-26T04:45:51.902Z,12.17
2017-10-26T04:48:19.658Z,11.80
2017-10-26T04:50:47.313Z,11.20
2017-10-26T04:53:14.975Z,12.10
2017-10-26T04:55:42.656Z,11.67
2017-10-26T04:58:10.328Z,11.70
2017-10-26T05:00:38.013Z,12.17
2017-10-26T05:03:05.712Z,12.87
2017-10-26T05:05:33.420Z,23.13
2017-10-26T05:08:01.077Z,21.93
2017-10-26T05:10:28.792Z,13.23
2017-10-26T05:12:56.441Z,14.17
2017-10-26T05:15:24.133Z,19.37
2017-10-26T05:17:51.770Z,13.90
2017-10-26T05:20:19.516Z,13.57
2017-10-26T05:22:47.183Z,13.70
2017-10-26T05:25:14.875Z,13.27
2017-10-26T05:27:42.549Z,11.90
2017-10-26T05:30:10.274Z,12.57
2017-10-26T05:32:38.806Z,12.77
2017-10-26T05:35:06.543Z,12.47
2017-10-26T05:37:34.200Z,13.27
2017-10-26T05:40:01.915Z,12.13
2017-10-26T05:42:29.614Z,12.83
2017-10-26T05:44:57.268Z,12.67
2017-10-26T05:47:25.017Z,11.70
2017-10-26T05:49:52.678Z,12.40
2017-10-26T05:52:20.392Z,13.00
2017-10-26T05:54:48.110Z,12.43
2017-10-26T05:57:15.800Z,13.53
2017-10-26T05:59:43.465Z,13.43
2017-10-26T06:02:11.160Z,13.13
2017-10-26T06:04:38.837Z,11.43
2017-10-26T06:07:06.535Z,11.00
2017-10-26T06:09:34.214Z,11.17
2017-10-26T06:12:01.833Z,12.80
2017-10-26T06:14:29.498Z,11.57
2017-10-26T06:16:57.208Z,11.60
2017-10-26T06:19:24.864Z,12.70
2017-10-26T06:21:52.609Z,10.93
2017-10-26T06:24:20.273Z,10.53
2017-10-26T06:26:47.958Z,10.93
2017-10-26T06:29:15.688Z,11.40
2017-10-26T06:31:43.373Z,11.60
2017-10-26T06:34:11.048Z,11.20
2017-10-26T06:36:38.707Z,10.17
2017-10-26T06:39:06.450Z,10.40
2017-10-26T06:41:34.104Z,10.63
2017-10-26T06:44:01.804Z,10.83
2017-10-26T06:46:29.515Z,10.20
2017-10-26T06:48:57.228Z,10.83
2017-10-26T06:51:24.905Z,10.80
2017-10-26T06:53:52.606Z,9.97
2017-10-26T06:56:20.303Z,10.00
2017-10-26T06:58:47.982Z,9.83
2017-10-26T07:01:15.634Z,9.67
2017-10-26T07:03:43.325Z,9.37
2017-10-26T07:06:10.992Z,8.37
2017-10-26T07:08:38.694Z,9.80
2017-10-26T07:11:06.342Z,9.73
2017-10-26T07:13:34.042Z,9.30
2017-10-26T07:16:01.697Z,9.77
2017-10-26T07:18:29.388Z,8.60
2017-10-26T07:20:57.042Z,8.13
2017-10-26T07:23:24.754Z,9.00
2017-10-26T07:25:52.406Z,8.70
2017-10-26T07:28:20.110Z,9.13
2017-10-26T07:30:47.800Z,9.30
2017-10-26T07:33:15.438Z,8.70
2017-10-26T07:35:43.080Z,7.73
2017-10-26T07:38:10.747Z,8.30
2017-10-26T07:40:38.494Z,7.67
2017-10-26T07:43:06.168Z,8.03
2017-10-26T07:45:33.867Z,8.70
2017-10-26T07:48:01.523Z,8.10
2017-10-26T07:50:29.216Z,8.30
2017-10-26T07:52:56.870Z,8.07
2017-10-26T07:55:24.578Z,8.10
2017-10-26T07:57:52.268Z,7.60
2017-10-26T08:00:19.942Z,7.60
2017-10-26T08:02:47.615Z,8.03
2017-10-26T08:05:15.266Z,8.10
2017-10-26T08:07:42.936Z,8.17
2017-10-26T08:10:10.629Z,8.73
2017-10-26T08:12:38.249Z,7.63
2017-10-26T08:15:05.889Z,7.57
2017-10-26T08:17:33.603Z,7.33
2017-10-26T08:20:01.256Z,7.87
2017-10-26T08:22:28.844Z,7.20
2017-10-26T08:24:56.542Z,7.00
2017-10-26T08:27:24.220Z,7.80
2017-10-26T08:29:51.923Z,8.33
2017-10-26T08:32:19.588Z,13.67
2017-10-26T08:34:47.257Z,78.13
2017-10-26T08:37:19.179Z,21.50
2017-10-26T08:39:47.412Z,10.10
2017-10-26T08:42:19.941Z,9.83
2017-10-26T08:44:47.550Z,7.70
2017-10-26T08:47:15.202Z,26.50
2017-10-26T08:49:49.989Z,9.50
2017-10-26T08:52:18.216Z,7.80
2017-10-26T08:54:45.861Z,8.93
2017-10-26T08:57:13.518Z,8.50
2017-10-26T08:59:41.208Z,8.00
2017-10-26T09:04:58.273Z,8.10
2017-10-26T09:07:33.336Z,8.30
2017-10-26T09:10:01.413Z,8.13
2017-10-26T09:12:29.090Z,8.80
2017-10-26T09:14:56.732Z,8.80
2017-10-26T09:17:24.386Z,8.97
2017-10-26T09:19:51.997Z,10.07
2017-10-26T09:22:19.742Z,9.17
2017-10-26T09:24:48.311Z,9.90
2017-10-26T09:27:16.058Z,9.80
2017-10-26T09:29:43.741Z,9.77
2017-10-26T09:32:11.487Z,9.50
2017-10-26T09:34:39.189Z,10.40
2017-10-26T09:37:06.896Z,9.87
2017-10-26T09:39:34.620Z,10.07
2017-10-26T09:42:02.298Z,10.13
2017-10-26T09:44:30.002Z,10.50
2017-10-26T09:46:57.669Z,10.80
2017-10-26T09:49:25.312Z,11.80
2017-10-26T09:51:52.983Z,10.90
2017-10-26T09:54:20.737Z,21.40
2017-10-26T09:56:48.407Z,18.23
2017-10-26T09:59:16.106Z,19.63
2017-10-26T10:01:43.778Z,23.87
2017-10-26T10:04:11.510Z,12.60
2017-10-26T10:06:39.230Z,13.47
2017-10-26T10:09:06.995Z,13.63
2017-10-26T10:11:34.587Z,13.60
2017-10-26T10:14:02.220Z,13.63
2017-10-26T10:16:29.822Z,13.70
2017-10-26T10:18:57.534Z,13.87
2017-10-26T10:21:25.220Z,14.43
2017-10-26T10:23:52.962Z,14.70
2017-10-26T10:26:20.669Z,14.23
2017-10-26T10:28:48.420Z,15.30
2017-10-26T10:31:16.102Z,16.10
2017-10-26T10:33:43.857Z,16.00
2017-10-26T10:36:11.497Z,15.53
2017-10-26T10:38:39.217Z,15.27
2017-10-26T10:41:07.006Z,15.03
2017-10-26T10:43:34.729Z,15.90
2017-10-26T10:46:02.376Z,17.07
2017-10-26T10:48:30.066Z,16.60
2017-10-26T10:50:57.773Z,16.53
2017-10-26T10:53:25.443Z,18.07
2017-10-26T10:55:53.158Z,17.43
2017-10-26T10:58:20.853Z,18.10
2017-10-26T11:00:48.556Z,17.13
2017-10-26T11:03:16.172Z,17.97
2017-10-26T11:05:43.811Z,19.30
2017-10-26T11:08:11.426Z,15.63
2017-10-26T11:10:39.115Z,18.57
2017-10-26T11:13:06.756Z,19.57
2017-10-26T11:15:34.401Z,19.53
2017-10-26T11:18:02.019Z,20.33
2017-10-26T11:20:29.659Z,20.40
2017-10-26T11:22:57.289Z,21.23
2017-10-26T11:25:25.024Z,17.87
2017-10-26T11:27:52.695Z,21.10
2017-10-26T11:30:20.390Z,23.80
2017-10-26T11:32:48.051Z,21.40
2017-10-26T11:35:15.757Z,21.63
2017-10-26T11:37:43.397Z,19.73
2017-10-26T11:40:11.091Z,19.53
2017-10-26T11:42:39.803Z,21.33
2017-10-26T11:45:07.473Z,22.40
2017-10-26T11:47:35.230Z,45.97
2017-10-26T11:50:02.903Z,19.00
2017-10-26T11:52:30.626Z,20.03
2017-10-26T11:54:58.307Z,22.33
2017-10-26T11:57:26.036Z,21.90
2017-10-26T11:59:53.752Z,21.53
2017-10-26T12:02:21.462Z,20.90
2017-10-26T12:04:49.144Z,20.40
2017-10-26T12:07:16.867Z,19.23
2017-10-26T12:09:44.549Z,17.60
2017-10-26T12:12:12.259Z,19.07
2017-10-26T12:14:39.962Z,18.80
2017-10-26T12:17:07.662Z,17.10
2017-10-26T12:19:35.335Z,16.00
2017-10-26T12:22:03.058Z,16.90
2017-10-26T12:24:30.731Z,17.10
2017-10-26T12:26:58.385Z,17.60
2017-10-26T12:29:26.051Z,16.17
2017-10-26T12:31:53.661Z,15.97
2017-10-26T12:34:21.362Z,17.40
2017-10-26T12:36:48.999Z,16.70
2017-10-26T12:39:16.724Z,15.63
2017-10-26T12:41:44.357Z,13.40
2017-10-26T12:44:12.060Z,16.07
2017-10-26T12:46:39.754Z,15.07
2017-10-26T12:49:07.484Z,13.80
2017-10-26T12:51:35.216Z,28.87
2017-10-26T12:54:02.975Z,22.97
2017-10-26T12:56:30.733Z,14.77
2017-10-26T12:58:58.876Z,15.10
2017-10-26T13:01:26.622Z,14.30
2017-10-26T13:03:54.451Z,13.03
2017-10-26T13:06:22.159Z,13.73
2017-10-26T13:08:49.996Z,14.57
2017-10-26T13:11:17.751Z,12.47
2017-10-26T13:13:45.555Z,13.20
2017-10-26T13:16:13.342Z,13.70
2017-10-26T13:18:41.020Z,11.03
2017-10-26T13:21:08.804Z,12.07
2017-10-26T13:23:36.474Z,11.97
2017-10-26T13:26:04.189Z,12.00
2017-10-26T13:28:31.857Z,12.67
2017-10-26T13:30:59.569Z,10.83
2017-10-26T13:33:27.224Z,11.80
2017-10-26T13:35:54.919Z,12.40
2017-10-26T13:38:22.536Z,11.43
2017-10-26T13:40:50.178Z,11.67
2017-10-26T13:43:17.873Z,11.63
2017-10-26T13:45:45.563Z,10.07
2017-10-26T13:48:13.207Z,9.97
2017-10-26T13:50:40.920Z,10.53
2017-10-26T13:53:08.585Z,9.90
2017-10-26T13:55:36.976Z,9.90
2017-10-26T13:58:04.656Z,10.40
2017-10-26T14:00:32.363Z,11.07
2017-10-26T14:03:00.077Z,10.50
2017-10-26T14:05:27.782Z,9.40
2017-10-26T14:07:55.452Z,9.73
2017-10-26T14:10:23.189Z,9.90
2017-10-26T14:12:50.877Z,9.50
2017-10-26T14:15:18.517Z,9.17
2017-10-26T14:17:46.213Z,9.60
2017-10-26T14:20:13.869Z,9.20
2017-10-26T14:22:41.569Z,9.33
2017-10-26T14:25:09.227Z,9.87
2017-10-26T14:27:40.808Z,10.60
2017-10-26T14:30:12.104Z,9.97
2017-10-26T14:32:39.726Z,9.90
2017-10-26T14:35:07.376Z,9.30
2017-10-26T14:37:35.091Z,9.13
2017-10-26T14:40:02.795Z,9.20
2017-10-26T14:42:31.637Z,9.20
2017-10-26T14:45:00.689Z,10.23
2017-10-26T14:47:28.503Z,9.00
2017-10-26T14:49:56.253Z,8.40
2017-10-26T14:52:23.986Z,10.20
2017-10-26T14:54:51.654Z,10.70
2017-10-26T14:57:19.305Z,9.00
2017-10-26T14:59:46.968Z,9.50
2017-10-26T15:02:14.701Z,9.73
2017-10-26T15:04:42.282Z,10.43
2017-10-26T15:07:09.973Z,9.20
2017-10-26T15:09:37.662Z,10.27
2017-10-26T15:12:13.483Z,10.67
2017-10-26T15:14:43.204Z,10.00
2017-10-26T15:17:23.015Z,10.90
2017-10-26T15:19:58.575Z,10.83
2017-10-26T15:22:33.402Z,9.57
2017-10-26T15:30:50.188Z,10.40
2017-10-26T15:33:28.966Z,10.03
2017-10-26T15:36:07.363Z,10.17
2017-10-26T15:38:35.043Z,11.33
2017-10-26T15:43:41.875Z,10.47
2017-10-26T15:46:10.147Z,10.63
2017-10-26T15:48:38.118Z,11.10
2017-10-26T15:51:11.347Z,11.90
2017-10-26T15:53:44.812Z,12.37
2017-10-26T15:56:24.076Z,11.33
2017-10-26T15:58:51.978Z,11.33
2017-10-26T16:01:19.599Z,11.20
2017-10-26T16:03:47.280Z,12.23
2017-10-26T16:06:14.907Z,10.90
2017-10-26T16:08:48.973Z,11.17
2017-10-26T16:14:01.340Z,9.60
2017-10-26T16:16:40.613Z,11.33
2017-10-26T16:22:05.982Z,10.33
2017-10-26T16:24:40.654Z,10.10
2017-10-26T16:27:17.142Z,9.73
2017-10-26T16:29:59.762Z,12.50
2017-10-26T16:32:33.355Z,10.40
2017-10-26T16:35:06.464Z,10.80
2017-10-26T16:37:34.867Z,10.73
2017-10-26T16:40:02.555Z,11.47
2017-10-26T16:42:30.177Z,11.27
2017-10-26T16:44:57.857Z,11.67
2017-10-26T16:47:25.590Z,11.07
2017-10-26T16:49:53.251Z,11.10
2017-10-26T16:52:20.960Z,10.13
2017-10-26T16:54:48.575Z,10.03
2017-10-26T16:57:16.264Z,10.50
2017-10-26T16:59:43.916Z,9.97
2017-10-26T17:02:11.640Z,10.37
2017-10-26T17:04:39.678Z,10.90
2017-10-26T17:07:07.398Z,9.90
2017-10-26T17:09:35.054Z,10.07
2017-10-26T17:12:02.761Z,9.73
2017-10-26T17:14:30.412Z,8.97
2017-10-26T17:16:58.102Z,9.30
2017-10-26T17:19:25.758Z,8.50
2017-10-26T17:21:53.454Z,8.93
2017-10-26T17:24:21.109Z,9.53
2017-10-26T17:26:48.795Z,8.80
2017-10-26T17:29:16.465Z,8.57
2017-10-26T17:31:44.158Z,8.93
2017-10-26T17:34:16.603Z,8.33
2017-10-26T17:36:44.234Z,9.03
2017-10-26T17:39:20.051Z,8.47
2017-10-26T17:41:55.244Z,9.13
2017-10-26T17:44:22.847Z,8.73
2017-10-26T17:46:50.768Z,8.93
2017-10-26T17:49:18.525Z,10.40
2017-10-26T17:51:46.185Z,26.43
2017-10-26T17:54:13.875Z,14.63
2017-10-26T17:56:41.540Z,11.00
2017-10-26T17:59:09.259Z,15.63
2017-10-26T18:01:36.912Z,12.33
2017-10-26T18:04:04.581Z,10.50
2017-10-26T18:06:32.226Z,10.97
2017-10-26T18:08:59.846Z,8.97
2017-10-26T18:11:27.451Z,9.10
2017-10-26T18:13:55.182Z,10.00
2017-10-26T18:16:22.834Z,9.13
2017-10-26T18:18:50.513Z,9.33
2017-10-26T18:21:18.192Z,9.90
2017-10-26T18:23:45.956Z,10.17
2017-10-26T18:26:14.114Z,9.30
2017-10-26T18:28:41.814Z,7.90
2017-10-26T18:31:09.458Z,8.40
2017-10-26T18:33:37.109Z,9.27
2017-10-26T18:36:04.722Z,8.63
2017-10-26T18:38:32.378Z,8.33
2017-10-26T18:40:59.977Z,8.00
2017-10-26T18:43:28.637Z,10.90
2017-10-26T18:45:56.266Z,9.23
2017-10-26T18:48:23.926Z,9.30
2017-10-26T18:50:51.586Z,9.27
2017-10-26T18:53:19.256Z,8.97
2017-10-26T18:55:46.922Z,8.50
2017-10-26T18:58:14.680Z,8.83
2017-10-26T19:00:42.496Z,7.60
2017-10-26T19:03:10.145Z,6.77
2017-10-26T19:05:37.789Z,6.93
2017-10-26T19:08:05.403Z,7.00
2017-10-26T19:10:33.104Z,7.10
2017-10-26T19:13:00.701Z,7.60
2017-10-26T19:15:28.417Z,7.07
2017-10-26T19:17:56.005Z,6.23
2017-10-26T19:20:23.771Z,6.20
2017-10-26T19:22:51.372Z,7.10
2017-10-26T19:25:19.012Z,6.57
2017-10-26T19:27:46.620Z,6.77
2017-10-26T19:30:14.353Z,6.90
2017-10-26T19:32:41.963Z,6.77
2017-10-26T19:35:09.694Z,6.13
2017-10-26T19:37:37.347Z,6.03
2017-10-26T19:40:05.105Z,6.40
2017-10-26T19:42:32.737Z,6.00
2017-10-26T19:45:00.351Z,6.80
2017-10-26T19:47:27.973Z,7.00
2017-10-26T19:49:55.638Z,6.73
2017-10-26T19:52:23.267Z,6.93
2017-10-26T19:54:50.927Z,6.50
2017-10-26T19:57:18.573Z,6.43
2017-10-26T19:59:46.236Z,7.50
2017-10-26T20:02:13.915Z,7.87
2017-10-26T20:04:41.609Z,7.60
2017-10-26T20:07:09.268Z,6.67
2017-10-26T20:09:36.851Z,7.33
2017-10-26T20:12:04.481Z,8.60
2017-10-26T20:14:32.074Z,7.87
2017-10-26T20:16:59.688Z,8.77
2017-10-26T20:19:27.322Z,7.70
2017-10-26T20:21:55.019Z,7.30
2017-10-26T20:24:22.606Z,8.20
2017-10-26T20:26:50.263Z,8.00
2017-10-26T20:29:24.443Z,8.43
2017-10-26T20:31:52.062Z,7.40
2017-10-26T20:34:19.686Z,8.30
2017-10-26T20:36:47.287Z,6.70
2017-10-26T20:39:14.927Z,7.60
2017-10-26T20:41:42.511Z,7.40
2017-10-26T20:44:10.122Z,7.70
2017-10-26T20:46:37.726Z,7.30
2017-10-26T20:49:11.047Z,7.10
2017-10-26T20:51:44.362Z,6.77
2017-10-26T20:54:17.439Z,6.97
2017-10-26T20:56:50.525Z,7.73
2017-10-26T20:59:23.756Z,6.60
2017-10-26T21:01:58.219Z,6.67
2017-10-26T21:04:31.250Z,6.30
2017-10-26T21:06:59.532Z,5.30
2017-10-26T21:09:27.155Z,6.50
2017-10-26T21:12:00.323Z,6.10
2017-10-26T21:14:28.806Z,5.97
2017-10-26T21:16:56.395Z,5.80
2017-10-26T21:19:24.027Z,7.00
2017-10-26T21:21:51.675Z,5.17
2017-10-26T21:24:19.315Z,5.70
2017-10-26T21:26:46.970Z,5.23
2017-10-26T21:29:14.595Z,5.40
2017-10-26T21:31:42.177Z,5.07
2017-10-26T21:34:09.808Z,5.27
2017-10-26T21:36:37.398Z,5.13
2017-10-26T21:39:05.116Z,5.67
2017-10-26T21:41:32.793Z,6.00
2017-10-26T21:44:00.446Z,5.70
2017-10-26T21:46:28.082Z,5.30
2017-10-26T21:48:55.728Z,5.10
2017-10-26T21:51:23.352Z,4.50
2017-10-26T21:53:50.998Z,5.17
2017-10-26T21:56:18.635Z,5.53
2017-10-26T21:58:46.324Z,4.97
2017-10-26T22:01:13.943Z,6.63
2017-10-26T22:03:41.595Z,5.67
2017-10-26T22:06:09.234Z,5.23
2017-10-26T22:08:36.894Z,5.27
2017-10-26T22:11:04.535Z,5.10
2017-10-26T22:13:32.180Z,5.10
2017-10-26T22:15:59.805Z,4.77
2017-10-26T22:18:27.397Z,5.10
2017-10-26T22:20:55.035Z,4.90
2017-10-26T22:23:22.662Z,5.70
2017-10-26T22:25:50.260Z,4.83
2017-10-26T22:28:17.889Z,5.53
2017-10-26T22:30:45.584Z,4.23
2017-10-26T22:33:13.231Z,5.20
2017-10-26T22:35:40.885Z,4.80
2017-10-26T22:38:08.505Z,4.17
2017-10-26T22:40:36.110Z,4.40
2017-10-26T22:43:03.733Z,3.97
2017-10-26T22:45:31.369Z,4.47
2017-10-26T22:47:58.986Z,5.20
2017-10-26T22:50:26.639Z,4.70
2017-10-26T22:52:54.270Z,4.73
2017-10-26T22:55:21.909Z,4.67
2017-10-26T22:57:49.599Z,4.37
2017-10-26T23:00:17.284Z,4.47
2017-10-26T23:02:44.987Z,4.63
2017-10-26T23:05:12.569Z,4.20
2017-10-26T23:07:40.175Z,4.90
2017-10-26T23:10:07.774Z,5.00
2017-10-26T23:12:35.402Z,4.93
2017-10-26T23:15:03.001Z,4.70
2017-10-26T23:17:30.720Z,4.63
2017-10-26T23:19:58.307Z,4.70
2017-10-26T23:22:25.960Z,5.67
2017-10-26T23:24:53.587Z,4.90
2017-10-26T23:27:21.253Z,5.17
2017-10-26T23:29:48.934Z,5.10
2017-10-26T23:32:16.579Z,5.67
2017-10-26T23:34:44.196Z,5.77
2017-10-26T23:37:12.878Z,5.63
2017-10-26T23:39:40.590Z,5.50
2017-10-26T23:42:08.177Z,5.73
2017-10-26T23:44:35.884Z,6.00
2017-10-26T23:47:03.466Z,6.10
2017-10-26T23:49:31.142Z,6.13
2017-10-26T23:51:58.717Z,6.10
2017-10-26T23:54:26.407Z,6.47
2017-10-26T23:56:54.002Z,6.33
2017-10-26T23:59:21.686Z,6.97
